• Join FlightAware (Why Join?)
  • Login
  • US Flag 
01:50PM EDT


 

Airport Tracker/Info


-or-


 

Live Flight TrackerFlight Track Log ✈ AWE1940 ✈ 06-Jun-2013 ✈ KCLT - KALB

Flight Track Log - Related Links

Times and Time Zones

All times are in EDT time to prevent confusion due to time zone crossing. See the AWE1940 flight status page for this flight to view local times or setup timezone preferences in your user account.

Time Position Orientation Groundspeed Altitude Reporting Facility
EDT Latitude Longitude Course Direction KTS MPH feet Rate Location/Type
10:29PM 35.1950 -80.9356 72° East 162 186 1,500  Level Atlanta Center
10:30PM 35.1636 -80.9342 178° South 160 184 3,300 1,980 Climbing Atlanta Center
10:31PM 35.1189 -80.8978 146° Southeast 207 238 4,900 1,620 Climbing Atlanta Center
10:32PM 35.1266 -80.6156 29° Northeast  Level FlightAware Approximate
10:32PM 35.1194 -80.8394 89° East 290 334 6,100  Level Atlanta Center
10:33PM 35.2277 -80.5469 30° Northeast  Level FlightAware Approximate
10:34PM 35.3167 -80.4678 90° East  Level FlightAware Approximate
10:34PM 35.2011 -80.6681 60° Northeast 296 341 11,000  Level Washington Center
10:35PM 35.3635 -80.3523 72° East  Level FlightAware Approximate
10:35PM 35.2447 -80.5717 61° Northeast 311 358 13,500  Level Washington Center
10:36PM 35.2956 -80.4578 61° Northeast 353 406 15,300 2,100 Climbing Washington Center
10:37PM 35.3458 -80.3436 62° Northeast 381 438 17,800 2,400 Climbing Washington Center
10:38PM 35.3989 -80.2194 62° Northeast 394 453 20,100 2,040 Climbing Washington Center
10:39PM 35.4503 -80.0769 66° East 407 468 21,900 1,560 Climbing Washington Center
10:40PM 35.4883 -79.9517 70° East 413 475 23,300 1,380 Climbing Washington Center
10:41PM 35.5247 -79.8031 73° East 432 497 24,700 1,320 Climbing Washington Center
10:42PM 35.5614 -79.6542 73° East 446 513 26,000 1,620 Climbing Washington Center
10:43PM 35.6000 -79.4978 73° East 462 532 28,000 1,500 Climbing Washington Center
10:44PM 35.6464 -79.3519 69° East 462 532 29,100 1,080 Climbing Washington Center
10:45PM 35.7094 -79.2014 63° Northeast 467 537 30,200 1,320 Climbing Washington Center
10:46PM 35.7703 -79.0506 64° Northeast 479 551 31,800 1,380 Climbing Washington Center
10:47PM 35.8286 -78.9072 63° Northeast 479 551 33,000 600 Climbing Washington Center
10:48PM 35.8889 -78.7558 64° Northeast 479 551 33,000  Level Washington Center
10:49PM 35.9594 -78.6122 59° Northeast 479 551 33,000  Level Washington Center
10:50PM 36.0297 -78.4711 58° Northeast 479 551 33,000  Level Washington Center
10:51PM 36.0956 -78.3244 61° Northeast 479 551 33,000  Level Washington Center
10:52PM 36.1658 -78.1778 59° Northeast 479 551 33,000  Level Washington Center
10:53PM 36.2356 -78.0358 59° Northeast 479 551 33,000  Level Washington Center
10:54PM 36.3011 -77.8883 61° Northeast 479 551 33,000  Level Washington Center
10:55PM 36.3725 -77.7433 59° Northeast 484 557 33,000  Level Washington Center
10:56PM 36.4397 -77.5931 61° Northeast 484 557 33,000  Level Washington Center
10:57PM 36.5089 -77.4475 59° Northeast 479 551 33,000  Level Washington Center
10:58PM 36.5778 -77.2989 60° Northeast 479 551 33,000  Level Washington Center
10:59PM 36.6467 -77.1503 60° Northeast 484 557 33,000  Level Washington Center
11:00PM 36.7194 -77.0092 57° Northeast 484 557 33,000  Level Washington Center
11:01PM 36.8394 -76.8947 37° Northeast 477 549 33,000  Level Washington Center
11:02PM 36.9492 -76.7978 35° Northeast 477 549 33,000  Level Washington Center
11:03PM 37.0586 -76.6981 36° Northeast 482 555 33,000  Level Washington Center
11:04PM 37.1658 -76.5978 37° Northeast 482 555 33,000  Level Washington Center
11:05PM 37.2750 -76.4975 36° Northeast 482 555 33,000  Level Washington Center
11:06PM 37.3842 -76.3969 36° Northeast 482 555 33,000  Level Washington Center
11:07PM 37.4892 -76.3011 36° Northeast 482 555 33,000  Level Washington Center
11:08PM 37.5919 -76.2078 36° Northeast 470 541 33,000 -60 Level Washington Center
11:09PM 37.6964 -76.1219 33° Northeast 456 525 32,900  Descending Washington Center
11:10PM 37.7867 -76.0306 39° Northeast 450 518 33,000  Climbing Washington Center
11:11PM 37.8892 -75.9339 37° Northeast 450 518 33,000  Level Washington Center
11:12PM 37.9914 -75.8394 36° Northeast 455 524 33,000  Level Washington Center
11:13PM 38.0917 -75.7422 37° Northeast 455 524 33,000  Level Washington Center
11:14PM 38.1961 -75.6472 36° Northeast 455 524 33,000  Level Washington Center
11:15PM 38.2983 -75.5494 37° Northeast 455 524 33,000 -60 Level Washington Center
11:16PM 38.4253 -75.4750 25° Northeast 455 524 32,900  Descending Washington Center
11:17PM 38.5461 -75.4272 17° North 442 509 33,000  Climbing Washington Center
11:18PM 38.6628 -75.3789 18° North 442 509 33,000  Level Washington Center
11:19PM 38.7794 -75.3175 22° Northeast 442 509 33,000 -60 Level Washington Center
11:20PM 38.8856 -75.2236 35° Northeast 454 522 32,900 -60 Descending Washington Center
11:21PM 38.9958 -75.1403 30° Northeast 454 522 32,900  Level Washington Center
11:22PM 39.0914 -75.0594 33° Northeast 459 528 32,900  Level Washington Center
11:23PM 39.2014 -74.9756 31° Northeast 452 520 32,900  Level Washington Center
11:24PM 39.3050 -74.8889 33° Northeast 452 520 32,900  Level Washington Center
11:25PM 39.4108 -74.8044 32° Northeast 452 520 32,900  Level Washington Center
11:26PM 39.5186 -74.7172 32° Northeast 452 520 33,000  Climbing Washington Center
11:27PM 39.6242 -74.6297 33° Northeast 452 520 33,000 -60 Level Washington Center
11:29PM 39.8858 -74.4311 30° Northeast 456 525 32,900 -60 Descending New York Center
11:30PM 40.0075 -74.4050 North 436 502 32,900  Level New York Center
11:31PM 40.1292 -74.3814 North 436 502 32,900  Level New York Center
11:32PM 40.2486 -74.3578 North 436 502 33,000  Climbing New York Center
11:33PM 40.3661 -74.3339 North 431 496 33,000 -60 Level New York Center
11:34PM 40.4900 -74.3078 North 436 502 32,900 -60 Descending New York Center
11:36PM 40.7750 -74.2517 North 451 519 32,900  Level Boston Center
11:37PM 40.8961 -74.2222 10° North 446 513 32,900  Level Boston Center
11:38PM 41.0197 -74.1953 North 446 513 33,000 -660 Climbing Boston Center
11:39PM 41.1431 -74.1683 North 446 513 31,600 -2,400 Descending Boston Center
11:40PM 41.2664 -74.1386 10° North 451 519 28,200 -2,820 Descending Boston Center
11:41PM 41.3919 -74.1086 10° North 451 519 26,000 -1,140 Descending Boston Center
11:42PM 41.4986 -74.0864 North 457 526 26,000 -2,100 Level Boston Center
11:43PM 41.6594 -74.0489 10° North 472 543 21,900 -3,420 Descending Boston Center
11:44PM 41.7892 -74.0189 10° North 478 550 19,200 -2,760 Descending Boston Center
11:45PM 41.9125 -73.9967 North 449 517 16,700 -2,340 Descending Boston Center
11:46PM 42.0233 -73.9661 12° North 429 494 14,600 -1,560 Descending Boston Center
11:47PM 42.1364 -73.9294 14° North 388 447 13,500 -1,020 Descending Boston Center
11:48PM 42.2264 -73.9008 13° North 368 423 12,600 -900 Descending Boston Center
11:49PM 42.3289 -73.8694 13° North 345 397 11,800 -1,860 Descending Boston Center
11:50PM 42.3972 -73.9019 341° North 299 344 8,900 -2,820 Descending Boston Center
11:51PM 42.4822 -73.9322 345° North 282 325 6,200 -2,400 Descending Boston Center
11:52PM 42.5394 -73.8686 39° Northeast 261 300 4,100 -2,100 Descending Boston Center